Open Full Screen Window  High Contrast Mode
Wind Gusting 00 knots
08
June 23, 2017 4:32 PM EDT
Weather Information
Wind Direction
  260 °
Wind Speed
  08 kt (9 mph)
Wind Gust
  00 kt (0 mph)
Altimeter
29.71 in
Visibility
7 SM
Temperature
21° C
70° F
Dewpoint
20° C
68° F
Humidity
94%
1hr Rain Fall
00.01 in.
24hr Rain Fall
00.76 in.
Sky Condition
Broken @ 4,100 ft
Broken @ 3,200 ft
Scattered @ 800 ft
VFR

METAR KMRT 232032Z AUTO 26008KT 7SM SCT008 BKN032 BKN041 21/20 A2971 RMK AO2 P0001 T02060196

*Background is not an actual portrayal of the airport.